Korneuburg, Austria
Current Conditions -  °F | °C
As of 9:50 PM on Sunday 25 Jan 2015 (Local Time) from LOXT Reporting Station
Broken Clouds Broken Clouds  
Wind Chill: 30°   Ceiling: 4000
Heat Index: 37°   Visibility: 9mi
Dew Point: 30°   Wind: 10mph
Humidity: 75%   Direction: 290°WNW
Pressure: 30.27"   Gusts: NA
Location:  48.35°N, 16.35°E
Report Text: LOXT 251950Z 29009KT 15KM BKN040SC 03/M01 Q1025 RMK BKN
Loading
Personal Weather Stations






























Interactive Weather Map New forecast layout! Learn more

10-Day Weather Forecast

Advertisements
Track Severe Weather on mobile